Time;durP1;ratioP1;P1;durP2;ratioP2;P2;SDS_P1;SDS_P2;PMS_P1;PMS_P2;Temp;Humidity;BMP_temperature;BMP_pressure;BME280_temperature;BME280_humidity;BME280_pressure;Samples;Min_cycle;Max_cycle;Signal;HPM_P1;HPM_P2
2023/08/27 00:00:37;;;;;;;;;;;31.10;63.50;;;;;;5043001;28;42939;-82
2023/08/27 00:03:02;;;;;;;;;;;30.40;62.90;;;;;;5044214;28;43052;-80
2023/08/27 00:05:28;;;;;;;;;;;30.30;62.70;;;;;;5044333;28;43343;-83
2023/08/27 00:07:53;;;;;;;;;;;30.70;63.00;;;;;;5043834;28;43329;-82
2023/08/27 00:10:19;;;;;;;;;;;30.40;62.70;;;;;;5051775;28;42887;-81
2023/08/27 00:12:45;;;;;;;;;;;30.30;62.50;;;;;;5064037;28;43471;-81
2023/08/27 00:15:10;;;;;;;;;;;30.40;62.30;;;;;;5064853;28;43043;-80
2023/08/27 00:17:36;;;;;;;;;;;30.40;62.70;;;;;;5064368;28;43020;-81
2023/08/27 00:20:04;;;;;;;;;;;30.30;62.60;;;;;;5064325;28;42956;-81
2023/08/27 00:22:30;;;;;;;;;;;30.30;63.10;;;;;;5062467;28;43811;-81
2023/08/27 00:24:55;;;;;;;;;;;30.20;63.20;;;;;;5065118;28;43076;-81
2023/08/27 00:27:21;;;;;;;;;;;30.30;63.30;;;;;;5067318;28;42887;-82
2023/08/27 00:29:46;;;;;;;;;;;30.10;63.50;;;;;;5066734;28;43070;-81
2023/08/27 00:32:12;;;;;;;;;;;30.30;64.00;;;;;;5066399;28;43399;-82
2023/08/27 00:34:37;;;;;;;;;;;30.30;63.70;;;;;;5066826;28;42978;-80
2023/08/27 00:37:03;;;;;;;;;;;30.10;63.70;;;;;;5079604;28;42883;-82
2023/08/27 00:39:29;;;;;;;;;;;30.10;63.20;;;;;;5088035;27;42938;-81
2023/08/27 00:41:55;;;;;;;;;;;30.20;63.70;;;;;;5087713;27;43511;-82
2023/08/27 00:44:20;;;;;;;;;;;30.10;63.60;;;;;;5086491;27;42993;-83
2023/08/27 00:46:47;;;;;;;;;;;30.20;63.60;;;;;;5086469;27;43047;-81
2023/08/27 00:49:13;;;;;;;;;;;30.10;63.80;;;;;;5087180;27;43070;-81
2023/08/27 00:51:38;;;;;;;;;;;30.20;63.90;;;;;;5087417;27;43461;-80
2023/08/27 00:54:07;;;;;;;;;;;30.10;63.70;;;;;;5087404;27;43075;-81
2023/08/27 00:56:32;;;;;;;;;;;30.20;62.30;;;;;;5087811;27;43534;-80
2023/08/27 00:59:00;;;;;;;;;;;30.00;63.90;;;;;;5086991;27;43100;-81
2023/08/27 01:01:27;;;;;;;;;;;30.30;64.30;;;;;;5085818;28;43113;-82
2023/08/27 01:03:53;;;;;;;;;;;30.70;64.90;;;;;;5087552;28;43078;-80
2023/08/27 01:06:18;;;;;;;;;;;30.00;64.30;;;;;;5087296;27;42908;-81
2023/08/27 01:09:03;;;;;;;;;;;30.10;64.30;;;;;;5085939;27;43219;-82
2023/08/27 01:11:49;;;;;;;;;;;30.10;61.60;;;;;;5076943;27;43596;-81
2023/08/27 01:14:15;;;;;;;;;;;30.10;64.20;;;;;;5064776;28;42997;-80
2023/08/27 01:16:41;;;;;;;;;;;30.10;64.00;;;;;;5066488;28;43606;-82
2023/08/27 01:19:13;;;;;;;;;;;30.20;64.10;;;;;;5066676;28;42952;-81
2023/08/27 01:21:39;;;;;;;;;;;30.00;64.10;;;;;;5066509;28;42933;-83
2023/08/27 01:24:05;;;;;;;;;;;30.00;63.90;;;;;;5063883;28;43040;-82
2023/08/27 01:26:49;;;;;;;;;;;30.00;63.10;;;;;;5066443;28;43609;-82
2023/08/27 01:29:36;;;;;;;;;;;30.00;61.60;;;;;;5066654;28;42940;-81
2023/08/27 01:32:05;;;;;;;;;;;30.10;61.80;;;;;;5066449;28;43678;-82
2023/08/27 01:34:30;;;;;;;;;;;29.70;62.10;;;;;;5066492;28;43014;-82
2023/08/27 01:36:56;;;;;;;;;;;29.90;65.00;;;;;;5065315;28;42757;-81
2023/08/27 01:39:22;;;;;;;;;;;29.70;65.30;;;;;;5066563;28;42856;-82
2023/08/27 01:41:48;;;;;;;;;;;29.60;65.60;;;;;;5066546;28;42870;-81
2023/08/27 01:44:13;;;;;;;;;;;29.80;65.40;;;;;;5066386;28;42969;-82
2023/08/27 01:46:39;;;;;;;;;;;29.80;65.10;;;;;;5065493;28;42990;-82
2023/08/27 01:49:04;;;;;;;;;;;29.80;65.10;;;;;;5065920;28;43037;-81
2023/08/27 01:51:30;;;;;;;;;;;29.90;65.50;;;;;;5065503;28;43533;-80
2023/08/27 01:53:55;;;;;;;;;;;29.90;65.60;;;;;;5065610;28;43049;-82
2023/08/27 01:56:21;;;;;;;;;;;30.00;65.10;;;;;;5064961;28;43683;-82
2023/08/27 01:58:49;;;;;;;;;;;30.00;63.50;;;;;;5065075;28;60549;-81
2023/08/27 02:01:14;;;;;;;;;;;30.00;65.20;;;;;;5065825;28;43864;-82
2023/08/27 02:03:40;;;;;;;;;;;29.90;65.20;;;;;;5065755;28;43028;-83
2023/08/27 02:06:05;;;;;;;;;;;29.80;64.90;;;;;;5065403;28;43184;-80
2023/08/27 02:08:31;;;;;;;;;;;29.90;65.00;;;;;;5064384;28;42983;-82
2023/08/27 02:10:56;;;;;;;;;;;30.50;65.60;;;;;;5049270;28;43090;-82
2023/08/27 02:13:22;;;;;;;;;;;29.80;65.20;;;;;;5062741;28;43671;-80
2023/08/27 02:15:47;;;;;;;;;;;29.80;65.20;;;;;;5064340;28;43011;-81
2023/08/27 02:18:13;;;;;;;;;;;29.70;65.00;;;;;;5063715;28;43036;-80
2023/08/27 02:20:38;;;;;;;;;;;29.90;65.60;;;;;;5064748;28;42938;-80
2023/08/27 02:23:04;;;;;;;;;;;29.90;65.70;;;;;;5065916;28;42900;-80
2023/08/27 02:25:29;;;;;;;;;;;29.70;65.60;;;;;;5065698;28;43695;-80
2023/08/27 02:27:55;;;;;;;;;;;29.60;65.10;;;;;;5065228;28;43150;-82
2023/08/27 02:30:20;;;;;;;;;;;29.60;65.70;;;;;;5064122;28;43555;-81
2023/08/27 02:32:46;;;;;;;;;;;29.80;65.90;;;;;;5063632;28;43126;-82
2023/08/27 02:35:11;;;;;;;;;;;29.70;65.80;;;;;;5064333;28;43063;-83
2023/08/27 02:37:37;;;;;;;;;;;29.60;66.10;;;;;;5064349;28;43005;-83
2023/08/27 02:40:03;;;;;;;;;;;29.60;66.30;;;;;;5064813;28;42951;-80
2023/08/27 02:42:28;;;;;;;;;;;29.60;65.90;;;;;;5065109;28;43052;-81
2023/08/27 02:44:54;;;;;;;;;;;29.70;66.30;;;;;;5063568;28;43679;-82
2023/08/27 02:47:19;;;;;;;;;;;29.80;66.30;;;;;;5064492;28;42976;-81
2023/08/27 02:49:45;;;;;;;;;;;29.80;66.00;;;;;;5065354;28;42909;-81
2023/08/27 02:52:10;;;;;;;;;;;29.70;66.00;;;;;;5064842;28;43223;-80
2023/08/27 02:54:36;;;;;;;;;;;29.70;65.80;;;;;;5063890;28;43467;-83
2023/08/27 02:57:01;;;;;;;;;;;29.60;66.10;;;;;;5065106;28;42922;-80
2023/08/27 02:59:27;;;;;;;;;;;29.80;66.20;;;;;;5064595;28;42915;-82
2023/08/27 03:01:52;;;;;;;;;;;29.90;66.30;;;;;;5065035;28;43004;-80
2023/08/27 03:04:18;;;;;;;;;;;29.90;66.20;;;;;;5065217;28;43548;-80
2023/08/27 03:06:44;;;;;;;;;;;29.70;66.50;;;;;;5065071;28;42821;-82
2023/08/27 03:09:10;;;;;;;;;;;29.80;66.70;;;;;;5063676;28;43424;-82
2023/08/27 03:11:36;;;;;;;;;;;29.80;66.80;;;;;;5063334;28;42960;-80
2023/08/27 03:14:01;;;;;;;;;;;29.80;67.20;;;;;;5063805;28;43495;-82
2023/08/27 03:16:27;;;;;;;;;;;29.70;67.40;;;;;;5063746;28;42891;-81
2023/08/27 03:18:52;;;;;;;;;;;29.70;67.60;;;;;;5064225;28;43055;-82
2023/08/27 03:21:18;;;;;;;;;;;29.60;67.80;;;;;;5064402;28;43037;-82
2023/08/27 03:23:43;;;;;;;;;;;29.60;67.90;;;;;;5062768;28;44187;-82
2023/08/27 03:26:09;;;;;;;;;;;29.80;68.30;;;;;;5064219;28;42987;-82
2023/08/27 03:28:34;;;;;;;;;;;29.60;67.20;;;;;;5064914;28;43568;-82
2023/08/27 03:31:03;;;;;;;;;;;29.50;67.70;;;;;;5064002;28;42935;-81
2023/08/27 03:33:31;;;;;;;;;;;29.50;65.30;;;;;;5063809;28;44583;-81
2023/08/27 03:35:57;;;;;;;;;;;29.70;68.00;;;;;;5062029;28;42800;-81
2023/08/27 03:38:23;;;;;;;;;;;29.70;68.00;;;;;;5070889;28;43082;-81
2023/08/27 03:40:50;;;;;;;;;;;29.60;67.80;;;;;;5084144;27;43022;-82
2023/08/27 03:43:16;;;;;;;;;;;29.70;67.90;;;;;;5061250;28;43379;-82
2023/08/27 03:45:41;;;;;;;;;;;30.20;68.10;;;;;;5060737;28;44645;-81
2023/08/27 03:48:07;;;;;;;;;;;29.60;67.50;;;;;;5063969;28;42944;-81
2023/08/27 03:50:34;;;;;;;;;;;29.70;67.90;;;;;;5062986;28;42892;-80
2023/08/27 03:52:59;;;;;;;;;;;29.60;67.90;;;;;;5064129;28;43598;-80
2023/08/27 03:55:25;;;;;;;;;;;29.70;68.10;;;;;;5064060;28;43059;-82
2023/08/27 03:57:51;;;;;;;;;;;29.60;68.10;;;;;;5063350;28;43402;-82
2023/08/27 04:00:17;;;;;;;;;;;29.60;67.70;;;;;;5065927;28;43072;-82
2023/08/27 04:02:44;;;;;;;;;;;29.60;67.70;;;;;;5066521;28;42919;-82
2023/08/27 04:05:10;;;;;;;;;;;29.50;68.00;;;;;;5067873;28;42956;-82
2023/08/27 04:07:35;;;;;;;;;;;29.60;67.90;;;;;;5065630;28;43119;-81
2023/08/27 04:10:01;;;;;;;;;;;29.50;67.90;;;;;;5066057;28;43081;-81
2023/08/27 04:12:26;;;;;;;;;;;29.60;67.80;;;;;;5066819;28;43033;-82
2023/08/27 04:14:52;;;;;;;;;;;29.80;67.80;;;;;;5064363;28;42953;-82
2023/08/27 04:17:17;;;;;;;;;;;29.70;67.60;;;;;;5067000;28;43234;-82
2023/08/27 04:19:43;;;;;;;;;;;29.60;67.90;;;;;;5067836;28;42927;-82
2023/08/27 04:22:08;;;;;;;;;;;29.40;67.90;;;;;;5067631;28;43704;-81
2023/08/27 04:24:34;;;;;;;;;;;29.60;68.00;;;;;;5066799;28;42990;-82
2023/08/27 04:26:59;;;;;;;;;;;29.50;67.80;;;;;;5065771;28;43798;-81
2023/08/27 04:29:26;;;;;;;;;;;29.50;67.60;;;;;;5066636;28;42838;-81
2023/08/27 04:31:52;;;;;;;;;;;29.60;68.10;;;;;;5066920;28;42902;-87
2023/08/27 04:34:18;;;;;;;;;;;29.60;67.00;;;;;;5066415;28;43023;-80
2023/08/27 04:36:43;;;;;;;;;;;29.50;67.10;;;;;;5067095;28;44349;-86
2023/08/27 04:39:09;;;;;;;;;;;29.60;68.20;;;;;;5065432;28;42991;-81
2023/08/27 04:41:34;;;;;;;;;;;29.40;67.90;;;;;;5065868;28;43701;-86
2023/08/27 04:44:00;;;;;;;;;;;29.50;68.50;;;;;;5066762;28;42865;-88
2023/08/27 04:46:25;;;;;;;;;;;29.40;68.30;;;;;;5066936;28;42932;-85
2023/08/27 04:48:51;;;;;;;;;;;29.50;68.70;;;;;;5067325;28;42790;-88
2023/08/27 04:51:16;;;;;;;;;;;29.30;68.80;;;;;;5064883;28;43457;-87
2023/08/27 04:53:42;;;;;;;;;;;29.30;68.70;;;;;;5065090;28;42998;-88
2023/08/27 04:56:07;;;;;;;;;;;29.40;68.80;;;;;;5066940;28;43590;-87
2023/08/27 04:58:33;;;;;;;;;;;29.40;68.20;;;;;;5066343;28;43168;-85
2023/08/27 05:00:59;;;;;;;;;;;29.50;68.40;;;;;;5065743;28;43684;-90
2023/08/27 05:03:25;;;;;;;;;;;29.50;68.60;;;;;;5065450;28;43106;-89
2023/08/27 05:05:53;;;;;;;;;;;29.50;69.10;;;;;;5066554;28;43535;-87
2023/08/27 05:08:19;;;;;;;;;;;29.60;66.40;;;;;;5066457;28;42871;-88
2023/08/27 05:10:45;;;;;;;;;;;29.60;68.80;;;;;;5066457;28;42945;-87
2023/08/27 05:13:10;;;;;;;;;;;29.60;68.80;;;;;;5065495;28;43071;-88
2023/08/27 05:15:36;;;;;;;;;;;29.60;69.30;;;;;;5046075;28;42926;-87
2023/08/27 05:18:02;;;;;;;;;;;29.60;68.50;;;;;;5046840;28;42850;-88
2023/08/27 05:20:27;;;;;;;;;;;29.60;69.00;;;;;;5046400;28;44560;-88
2023/08/27 05:22:53;;;;;;;;;;;29.80;69.40;;;;;;5046407;28;43068;-88
2023/08/27 05:25:19;;;;;;;;;;;30.10;69.40;;;;;;5046385;28;43633;-81
2023/08/27 05:27:44;;;;;;;;;;;29.50;68.70;;;;;;5057974;28;43344;-80
2023/08/27 05:30:12;;;;;;;;;;;29.70;69.30;;;;;;5071515;28;45105;-80
2023/08/27 05:32:37;;;;;;;;;;;29.50;69.70;;;;;;5068464;27;43073;-87
2023/08/27 05:35:03;;;;;;;;;;;29.50;70.10;;;;;;5065530;27;43392;-80
2023/08/27 05:37:29;;;;;;;;;;;29.50;70.60;;;;;;5066386;28;43087;-80
2023/08/27 05:39:54;;;;;;;;;;;29.30;70.70;;;;;;5065862;28;42943;-80
2023/08/27 05:42:20;;;;;;;;;;;29.50;71.10;;;;;;5067779;28;43077;-80
2023/08/27 05:44:46;;;;;;;;;;;29.50;71.10;;;;;;5066252;28;42809;-80
2023/08/27 05:47:12;;;;;;;;;;;29.60;71.20;;;;;;5068271;28;43584;-88
2023/08/27 05:49:38;;;;;;;;;;;29.50;71.00;;;;;;5066403;28;42905;-80
2023/08/27 05:52:04;;;;;;;;;;;29.60;71.50;;;;;;5075931;28;42964;-83
2023/08/27 05:54:29;;;;;;;;;;;29.60;71.50;;;;;;5073594;28;43161;-87
2023/08/27 05:56:55;;;;;;;;;;;29.60;72.00;;;;;;5076226;27;43022;-82
2023/08/27 05:59:20;;;;;;;;;;;29.60;71.80;;;;;;5075100;27;43028;-86
2023/08/27 06:01:46;;;;;;;;;;;29.50;71.80;;;;;;5073811;28;43054;-87
2023/08/27 06:04:11;;;;;;;;;;;29.60;71.90;;;;;;5074582;27;43497;-88
2023/08/27 06:06:37;;;;;;;;;;;29.60;72.10;;;;;;5073792;28;42958;-86
2023/08/27 06:09:03;;;;;;;;;;;29.70;72.20;;;;;;5073113;28;43470;-88
2023/08/27 06:11:29;;;;;;;;;;;29.40;72.00;;;;;;5062116;28;42983;-84
2023/08/27 06:13:55;;;;;;;;;;;29.60;72.20;;;;;;5056253;28;43199;-85
2023/08/27 06:16:20;;;;;;;;;;;29.70;72.50;;;;;;5063039;28;43057;-87
2023/08/27 06:18:46;;;;;;;;;;;29.80;73.50;;;;;;5065624;28;43576;-82
2023/08/27 06:21:11;;;;;;;;;;;29.50;73.80;;;;;;5065104;28;42829;-80
2023/08/27 06:23:37;;;;;;;;;;;29.60;73.70;;;;;;5065425;28;43450;-79
2023/08/27 06:26:03;;;;;;;;;;;29.60;73.50;;;;;;5065738;28;42999;-79
2023/08/27 06:28:29;;;;;;;;;;;29.70;73.90;;;;;;5066172;28;42993;-79
2023/08/27 06:30:54;;;;;;;;;;;29.70;73.90;;;;;;5066036;28;43056;-80
2023/08/27 06:33:20;;;;;;;;;;;29.70;73.80;;;;;;5064074;28;43630;-80
2023/08/27 06:35:45;;;;;;;;;;;29.40;74.60;;;;;;5066497;28;43094;-80
2023/08/27 06:38:11;;;;;;;;;;;29.80;74.80;;;;;;5072108;27;43008;-83
2023/08/27 06:40:36;;;;;;;;;;;29.50;74.10;;;;;;5067413;28;44410;-81
2023/08/27 06:43:02;;;;;;;;;;;29.60;74.50;;;;;;5069637;27;42924;-79
2023/08/27 06:45:28;;;;;;;;;;;29.40;74.10;;;;;;5066898;27;42976;-80
2023/08/27 06:47:54;;;;;;;;;;;29.50;74.40;;;;;;5074989;28;43529;-81
2023/08/27 06:50:20;;;;;;;;;;;29.70;74.70;;;;;;5050383;28;42938;-82
2023/08/27 06:52:46;;;;;;;;;;;29.60;74.70;;;;;;5053743;28;42959;-81
2023/08/27 06:55:12;;;;;;;;;;;29.60;74.80;;;;;;5054497;28;43166;-81
2023/08/27 06:57:38;;;;;;;;;;;29.60;75.30;;;;;;5053915;28;43118;-80
2023/08/27 07:00:07;;;;;;;;;;;29.60;75.50;;;;;;5069609;28;42958;-78
2023/08/27 07:02:33;;;;;;;;;;;29.50;75.00;;;;;;5063713;28;43117;-82
2023/08/27 07:04:59;;;;;;;;;;;29.50;75.20;;;;;;5065853;28;43100;-80
2023/08/27 07:07:25;;;;;;;;;;;29.50;75.20;;;;;;5064679;27;43075;-79
2023/08/27 07:09:50;;;;;;;;;;;29.60;75.00;;;;;;5076433;28;42825;-80
2023/08/27 07:12:17;;;;;;;;;;;29.70;74.70;;;;;;5072545;27;42939;-80
2023/08/27 07:14:42;;;;;;;;;;;29.60;74.90;;;;;;5072499;27;42869;-79
2023/08/27 07:17:08;;;;;;;;;;;29.70;75.10;;;;;;5059796;28;43477;-79
2023/08/27 07:19:33;;;;;;;;;;;29.80;75.30;;;;;;5056193;28;42810;-79
2023/08/27 07:21:59;;;;;;;;;;;29.70;75.00;;;;;;5058467;28;43950;-79
2023/08/27 07:24:24;;;;;;;;;;;29.50;75.20;;;;;;5063007;28;42958;-80
2023/08/27 07:26:50;;;;;;;;;;;29.70;75.50;;;;;;5063918;28;43613;-79
2023/08/27 07:29:15;;;;;;;;;;;29.80;75.60;;;;;;5062864;28;43032;-80
2023/08/27 07:31:41;;;;;;;;;;;29.80;75.50;;;;;;5063410;28;43061;-81
2023/08/27 07:34:06;;;;;;;;;;;29.70;75.00;;;;;;5063870;28;43163;-80
2023/08/27 07:36:32;;;;;;;;;;;29.80;75.30;;;;;;5053770;28;43692;-81
2023/08/27 07:38:57;;;;;;;;;;;29.90;75.80;;;;;;5043657;28;43061;-81
2023/08/27 07:41:23;;;;;;;;;;;29.80;75.60;;;;;;5043829;28;43107;-80
2023/08/27 07:43:48;;;;;;;;;;;29.70;75.20;;;;;;5044476;28;42970;-81
2023/08/27 07:46:14;;;;;;;;;;;29.90;74.60;;;;;;5043974;28;42896;-81
2023/08/27 07:48:40;;;;;;;;;;;29.90;75.00;;;;;;5044512;28;43012;-80
2023/08/27 07:51:06;;;;;;;;;;;29.90;74.90;;;;;;5044619;28;43812;-80
2023/08/27 07:53:31;;;;;;;;;;;29.90;74.30;;;;;;5044761;28;43225;-81
2023/08/27 07:55:57;;;;;;;;;;;29.90;74.10;;;;;;5044778;28;42905;-81
2023/08/27 07:58:22;;;;;;;;;;;29.90;73.80;;;;;;5044615;28;42869;-81
2023/08/27 08:00:48;;;;;;;;;;;30.00;73.70;;;;;;5045124;28;43508;-81
2023/08/27 08:03:13;;;;;;;;;;;29.90;73.60;;;;;;5044832;28;42776;-81
2023/08/27 08:05:39;;;;;;;;;;;30.00;73.40;;;;;;5044197;28;43564;-81
2023/08/27 08:08:04;;;;;;;;;;;30.00;73.30;;;;;;5044278;28;42779;-81
2023/08/27 08:10:30;;;;;;;;;;;30.10;72.70;;;;;;5044274;28;44804;-80
2023/08/27 08:12:55;;;;;;;;;;;30.00;72.80;;;;;;5044682;28;42842;-80
2023/08/27 08:15:21;;;;;;;;;;;30.10;72.30;;;;;;5044367;28;43071;-81
2023/08/27 08:17:46;;;;;;;;;;;29.90;72.40;;;;;;5044391;28;42901;-81
2023/08/27 08:20:12;;;;;;;;;;;30.00;71.40;;;;;;5060075;27;42929;-80
2023/08/27 08:22:38;;;;;;;;;;;30.00;72.10;;;;;;5043940;28;43020;-80
2023/08/27 08:25:05;;;;;;;;;;;30.00;72.20;;;;;;5043942;28;42944;-80
2023/08/27 08:27:30;;;;;;;;;;;30.00;71.20;;;;;;5043731;28;43215;-81
2023/08/27 08:29:55;;;;;;;;;;;30.20;71.70;;;;;;5043695;28;43570;-80
2023/08/27 08:32:21;;;;;;;;;;;30.10;71.90;;;;;;5044292;28;43447;-80
2023/08/27 08:34:47;;;;;;;;;;;30.00;71.40;;;;;;5043457;28;43530;-80
2023/08/27 08:37:12;;;;;;;;;;;30.10;71.50;;;;;;5043420;28;42962;-81
2023/08/27 08:39:38;;;;;;;;;;;30.20;72.90;;;;;;5043586;28;42784;-80
2023/08/27 08:42:13;;;;;;;;;;;30.10;72.90;;;;;;5059557;28;42743;-81
2023/08/27 08:44:45;;;;;;;;;;;30.20;70.20;;;;;;5044888;28;42917;-81
2023/08/27 08:47:11;;;;;;;;;;;30.10;72.70;;;;;;5047806;28;42948;-80
2023/08/27 08:49:38;;;;;;;;;;;30.30;72.40;;;;;;5047266;28;42784;-81
2023/08/27 08:52:07;;;;;;;;;;;30.20;72.60;;;;;;5047174;28;42855;-80
2023/08/27 08:54:34;;;;;;;;;;;30.10;72.00;;;;;;5047182;28;43569;-80
2023/08/27 08:57:01;;;;;;;;;;;30.20;72.40;;;;;;5047423;28;43083;-80
2023/08/27 08:59:28;;;;;;;;;;;30.10;72.10;;;;;;5046839;28;43730;-80
2023/08/27 09:01:54;;;;;;;;;;;30.30;72.40;;;;;;5047150;28;43090;-80
2023/08/27 09:04:20;;;;;;;;;;;31.00;72.50;;;;;;5047473;28;43581;-81
2023/08/27 09:06:46;;;;;;;;;;;30.10;72.20;;;;;;5046772;28;42907;-81
2023/08/27 09:09:13;;;;;;;;;;;30.10;70.30;;;;;;5047031;28;43179;-81
2023/08/27 09:11:38;;;;;;;;;;;30.20;70.60;;;;;;5046766;28;43099;-81
2023/08/27 09:14:04;;;;;;;;;;;30.10;71.00;;;;;;5046501;28;43636;-80
2023/08/27 09:16:30;;;;;;;;;;;30.40;71.70;;;;;;5046466;28;42973;-81
2023/08/27 09:18:55;;;;;;;;;;;30.10;70.40;;;;;;5047057;28;42976;-81
2023/08/27 09:21:21;;;;;;;;;;;30.20;71.80;;;;;;5047303;28;42812;-81
2023/08/27 09:23:47;;;;;;;;;;;30.20;71.60;;;;;;5046744;28;43096;-81
2023/08/27 09:26:14;;;;;;;;;;;30.10;71.50;;;;;;5047076;28;42922;-81
2023/08/27 09:28:40;;;;;;;;;;;30.00;72.10;;;;;;5046764;28;43589;-81
2023/08/27 09:31:08;;;;;;;;;;;30.10;72.50;;;;;;5047120;28;43333;-81
2023/08/27 09:33:35;;;;;;;;;;;30.00;71.00;;;;;;5046552;28;42925;-81
2023/08/27 09:36:01;;;;;;;;;;;30.10;70.20;;;;;;5046748;28;42787;-81
2023/08/27 09:38:27;;;;;;;;;;;30.10;70.10;;;;;;5046650;28;42941;-80
2023/08/27 09:40:53;;;;;;;;;;;30.10;70.90;;;;;;5046476;28;42937;-80
2023/08/27 09:43:18;;;;;;;;;;;30.20;69.80;;;;;;5046545;28;43605;-81
2023/08/27 09:45:44;;;;;;;;;;;30.20;69.60;;;;;;5046634;28;42977;-81
2023/08/27 09:48:09;;;;;;;;;;;30.20;69.50;;;;;;5046390;28;42984;-81
2023/08/27 09:50:35;;;;;;;;;;;30.30;69.70;;;;;;5045903;28;43258;-81
2023/08/27 09:53:27;;;;;;;;;;;30.30;70.10;;;;;;5050629;28;43299;-80
2023/08/27 09:55:52;;;;;;;;;;;30.20;67.60;;;;;;5056769;28;43302;-80
2023/08/27 09:58:24;;;;;;;;;;;30.00;67.40;;;;;;5045725;28;44173;-79
2023/08/27 10:00:56;;;;;;;;;;;30.10;67.60;;;;;;5063133;28;42996;-80
2023/08/27 10:03:22;;;;;;;;;;;30.20;68.60;;;;;;5064953;28;43068;-79
2023/08/27 10:05:49;;;;;;;;;;;30.40;69.10;;;;;;5065265;28;42948;-79
2023/08/27 10:08:15;;;;;;;;;;;30.10;68.90;;;;;;5064814;28;43010;-80
2023/08/27 10:10:41;;;;;;;;;;;30.20;69.10;;;;;;5064378;28;43023;-81
2023/08/27 10:13:07;;;;;;;;;;;30.10;68.40;;;;;;5070841;28;42980;-80
2023/08/27 10:15:36;;;;;;;;;;;30.20;68.60;;;;;;5071101;27;44173;-79
2023/08/27 10:18:04;;;;;;;;;;;30.20;68.50;;;;;;5064733;28;44065;-80
2023/08/27 10:20:30;;;;;;;;;;;29.80;68.30;;;;;;5063697;28;42973;-79
2023/08/27 10:22:56;;;;;;;;;;;30.40;69.00;;;;;;5064633;28;42965;-80
2023/08/27 10:25:21;;;;;;;;;;;30.30;68.20;;;;;;5069525;28;43058;-80
2023/08/27 10:27:48;;;;;;;;;;;30.30;68.20;;;;;;5074914;28;43546;-80
2023/08/27 10:30:14;;;;;;;;;;;30.40;68.30;;;;;;5065489;28;42964;-82
2023/08/27 10:32:40;;;;;;;;;;;30.40;68.40;;;;;;5071613;27;43660;-85
2023/08/27 10:35:06;;;;;;;;;;;30.40;67.90;;;;;;5064861;28;43086;-84
2023/08/27 10:37:32;;;;;;;;;;;30.40;67.80;;;;;;5064814;28;43685;-84
2023/08/27 10:39:59;;;;;;;;;;;30.40;68.10;;;;;;5069687;28;42994;-83
2023/08/27 10:42:32;;;;;;;;;;;29.90;68.10;;;;;;5070174;28;43610;-82
2023/08/27 10:45:17;;;;;;;;;;;30.50;65.10;;;;;;5065088;28;42949;-83
2023/08/27 10:48:03;;;;;;;;;;;30.40;64.40;;;;;;5064518;28;43642;-83
2023/08/27 10:50:41;;;;;;;;;;;30.40;67.50;;;;;;5064636;28;42941;-83
2023/08/27 10:53:06;;;;;;;;;;;30.30;67.40;;;;;;5064722;28;42962;-83
2023/08/27 10:55:33;;;;;;;;;;;30.50;67.50;;;;;;5063282;28;43021;-83
2023/08/27 10:58:17;;;;;;;;;;;30.40;67.10;;;;;;5062671;28;44536;-83
2023/08/27 11:01:04;;;;;;;;;;;30.40;64.00;;;;;;5064562;28;43171;-82
2023/08/27 11:03:48;;;;;;;;;;;30.40;64.00;;;;;;5074923;28;42923;-83
2023/08/27 11:06:14;;;;;;;;;;;30.50;63.90;;;;;;5068482;28;43040;-83
2023/08/27 11:08:42;;;;;;;;;;;30.60;67.00;;;;;;5075096;28;42956;-83
2023/08/27 11:11:14;;;;;;;;;;;30.70;63.60;;;;;;5073315;28;43018;-82
2023/08/27 11:13:44;;;;;;;;;;;30.50;63.20;;;;;;5060568;27;42951;-82
2023/08/27 11:16:11;;;;;;;;;;;30.60;65.00;;;;;;5057156;28;42985;-83
2023/08/27 11:18:50;;;;;;;;;;;30.40;64.60;;;;;;5057566;28;43476;-83
2023/08/27 11:21:40;;;;;;;;;;;30.50;61.80;;;;;;5054839;28;43047;-83
2023/08/27 11:24:12;;;;;;;;;;;30.60;61.10;;;;;;5053081;28;44136;-83
2023/08/27 11:26:39;;;;;;;;;;;30.50;61.20;;;;;;5052352;28;43244;-83
2023/08/27 11:29:06;;;;;;;;;;;30.50;63.50;;;;;;5052550;28;43011;-83
2023/08/27 11:31:31;;;;;;;;;;;30.50;63.50;;;;;;5054237;28;42881;-83
2023/08/27 11:33:57;;;;;;;;;;;30.60;63.50;;;;;;5053597;28;43629;-83
2023/08/27 11:36:23;;;;;;;;;;;30.70;63.50;;;;;;5054627;28;43062;-84
2023/08/27 11:38:48;;;;;;;;;;;30.70;63.10;;;;;;5059250;28;44371;-83
2023/08/27 11:41:14;;;;;;;;;;;30.70;62.50;;;;;;5070469;28;43008;-83
2023/08/27 11:43:39;;;;;;;;;;;30.60;62.30;;;;;;5072719;28;43130;-82
2023/08/27 11:46:05;;;;;;;;;;;30.60;62.80;;;;;;5065147;27;43014;-83
2023/08/27 11:48:30;;;;;;;;;;;30.70;62.90;;;;;;5064169;28;42963;-83
2023/08/27 11:50:56;;;;;;;;;;;30.60;62.90;;;;;;5063504;28;43011;-83
2023/08/27 11:53:24;;;;;;;;;;;30.70;62.90;;;;;;5063668;28;43044;-83
2023/08/27 11:55:50;;;;;;;;;;;28.80;59.00;;;;;;5064039;28;43003;-83
2023/08/27 11:58:15;;;;;;;;;;;30.60;62.30;;;;;;5072009;28;44986;-82
2023/08/27 12:00:42;;;;;;;;;;;30.60;62.60;;;;;;5074530;28;44066;-83
2023/08/27 12:03:08;;;;;;;;;;;30.60;62.80;;;;;;5061603;27;43161;-82
2023/08/27 12:05:33;;;;;;;;;;;30.60;62.70;;;;;;5063735;28;43015;-83
2023/08/27 12:08:04;;;;;;;;;;;30.50;62.80;;;;;;5063871;28;43380;-83
2023/08/27 12:10:32;;;;;;;;;;;30.60;62.60;;;;;;5063427;28;42964;-83
2023/08/27 12:12:58;;;;;;;;;;;30.20;62.50;;;;;;5063213;28;42932;-82
2023/08/27 12:15:30;;;;;;;;;;;30.60;63.00;;;;;;5062945;28;42964;-82
2023/08/27 12:17:56;;;;;;;;;;;30.60;60.00;;;;;;5062989;28;43382;-82
2023/08/27 12:20:34;;;;;;;;;;;30.70;63.10;;;;;;5064243;28;42831;-83
2023/08/27 12:23:10;;;;;;;;;;;30.50;60.10;;;;;;5064840;28;43091;-83
2023/08/27 12:25:46;;;;;;;;;;;31.80;61.10;;;;;;5064562;28;42747;-82
2023/08/27 12:28:11;;;;;;;;;;;30.40;59.80;;;;;;5045365;28;42968;-83
2023/08/27 12:30:37;;;;;;;;;;;30.70;62.70;;;;;;5066023;28;43032;-83
2023/08/27 12:33:04;;;;;;;;;;;30.80;62.60;;;;;;5067106;28;42972;-83
2023/08/27 12:35:29;;;;;;;;;;;30.60;62.10;;;;;;5067560;28;42926;-83
2023/08/27 12:37:55;;;;;;;;;;;30.70;63.00;;;;;;5067368;28;43996;-83
2023/08/27 12:40:20;;;;;;;;;;;30.70;62.80;;;;;;5066401;28;43078;-83
2023/08/27 12:42:46;;;;;;;;;;;30.70;63.00;;;;;;5066626;28;43505;-84
2023/08/27 12:45:11;;;;;;;;;;;30.60;63.10;;;;;;5065412;28;42999;-83
2023/08/27 12:47:37;;;;;;;;;;;30.50;63.20;;;;;;5065783;28;43014;-83
2023/08/27 12:50:02;;;;;;;;;;;30.90;63.60;;;;;;5066820;28;43022;-83
2023/08/27 12:52:28;;;;;;;;;;;30.50;63.10;;;;;;5066420;28;43498;-83
2023/08/27 12:54:53;;;;;;;;;;;30.70;63.60;;;;;;5065197;28;43020;-82
2023/08/27 12:57:19;;;;;;;;;;;30.60;63.50;;;;;;5066870;28;42825;-83
2023/08/27 12:59:44;;;;;;;;;;;30.70;63.70;;;;;;5066942;28;43044;-83
2023/08/27 13:02:10;;;;;;;;;;;30.70;63.10;;;;;;5060283;28;44014;-82
2023/08/27 13:04:36;;;;;;;;;;;30.60;63.20;;;;;;5069405;28;43076;-83
2023/08/27 13:07:01;;;;;;;;;;;30.60;63.90;;;;;;5076001;28;43307;-82
2023/08/27 13:09:27;;;;;;;;;;;30.60;63.90;;;;;;5071218;27;42909;-82
2023/08/27 13:11:54;;;;;;;;;;;30.60;63.90;;;;;;5060040;28;43414;-83
2023/08/27 13:14:19;;;;;;;;;;;30.60;64.10;;;;;;5068010;28;43016;-82
2023/08/27 13:16:47;;;;;;;;;;;30.50;63.80;;;;;;5071800;28;43499;-82
2023/08/27 13:19:12;;;;;;;;;;;30.70;63.90;;;;;;5071577;28;44234;-82
2023/08/27 13:21:40;;;;;;;;;;;30.60;64.40;;;;;;5074750;28;43593;-82
2023/08/27 13:24:05;;;;;;;;;;;30.60;64.40;;;;;;5076532;28;43050;-82
2023/08/27 13:26:31;;;;;;;;;;;30.80;65.10;;;;;;5075097;27;42970;-83
2023/08/27 13:28:57;;;;;;;;;;;30.60;63.90;;;;;;5070149;28;43052;-84
2023/08/27 13:31:22;;;;;;;;;;;30.70;64.40;;;;;;5075587;28;43654;-84
2023/08/27 13:33:48;;;;;;;;;;;30.90;64.70;;;;;;5073202;27;43030;-82
2023/08/27 13:36:14;;;;;;;;;;;30.60;64.00;;;;;;5070120;28;43501;-82
2023/08/27 13:38:39;;;;;;;;;;;30.60;64.20;;;;;;5071474;27;43181;-83
2023/08/27 13:41:05;;;;;;;;;;;30.80;64.70;;;;;;5065001;28;43111;-82
2023/08/27 13:43:30;;;;;;;;;;;30.70;64.40;;;;;;5066997;28;43048;-85
2023/08/27 13:45:56;;;;;;;;;;;30.60;63.70;;;;;;5069459;28;43395;-82
2023/08/27 13:48:21;;;;;;;;;;;31.50;65.00;;;;;;5071542;28;42964;-84
2023/08/27 13:50:47;;;;;;;;;;;30.70;65.50;;;;;;5075669;28;43572;-85
2023/08/27 13:53:13;;;;;;;;;;;30.60;65.80;;;;;;5074593;28;42987;-84
2023/08/27 13:55:39;;;;;;;;;;;30.70;65.70;;;;;;5076972;28;43039;-85
2023/08/27 13:58:04;;;;;;;;;;;30.60;65.10;;;;;;5069635;28;43062;-86
2023/08/27 14:00:33;;;;;;;;;;;32.10;66.30;;;;;;5068719;28;42967;-83
2023/08/27 14:02:59;;;;;;;;;;;30.60;64.00;;;;;;5071387;28;43002;-88
2023/08/27 14:05:24;;;;;;;;;;;30.70;64.80;;;;;;5071459;28;43225;-84
2023/08/27 14:07:50;;;;;;;;;;;30.80;64.90;;;;;;5075085;28;43102;-87
2023/08/27 14:10:15;;;;;;;;;;;30.80;64.90;;;;;;5069704;27;43127;-84
2023/08/27 14:12:41;;;;;;;;;;;30.70;64.70;;;;;;5064855;28;42960;-85